createdAt,value
2022-08-03T00:00:49.929Z,0
2022-08-03T00:01:50.183Z,0
2022-08-03T00:02:50.436Z,0
2022-08-03T00:03:49.664Z,0
2022-08-03T00:04:50.160Z,0
2022-08-03T00:06:11.065Z,0
2022-08-03T00:06:49.892Z,0
2022-08-03T00:07:55.314Z,0
2022-08-03T00:08:49.625Z,0
2022-08-03T00:09:49.363Z,0
2022-08-03T00:10:50.123Z,0
2022-08-03T00:11:53.212Z,0
2022-08-03T00:12:49.341Z,0
2022-08-03T00:13:49.582Z,0
2022-08-03T00:14:50.329Z,0
2022-08-03T00:15:50.084Z,0
2022-08-03T00:16:49.826Z,0
2022-08-03T00:18:00.766Z,0
2022-08-03T00:18:50.079Z,0
2022-08-03T00:19:49.807Z,0
2022-08-03T00:20:50.052Z,0
2022-08-03T00:21:50.049Z,0
2022-08-03T00:22:49.526Z,0
2022-08-03T00:23:59.398Z,0
2022-08-03T00:24:49.773Z,0
2022-08-03T00:25:50.013Z,0
2022-08-03T00:26:49.759Z,0
2022-08-03T00:27:53.280Z,0
2022-08-03T00:28:50.099Z,0
2022-08-03T00:30:07.060Z,0
2022-08-03T00:30:52.451Z,0
2022-08-03T00:32:07.465Z,0
2022-08-03T00:32:52.028Z,0
2022-08-03T00:34:09.331Z,0
2022-08-03T00:35:37.191Z,0
2022-08-03T00:35:59.946Z,0
2022-08-03T00:36:59.683Z,0
2022-08-03T00:37:59.933Z,0
2022-08-03T00:39:00.183Z,0
2022-08-03T00:40:08.366Z,0
2022-08-03T00:40:59.912Z,0
2022-08-03T00:42:00.164Z,0
2022-08-03T00:43:00.181Z,0
2022-08-03T00:43:59.635Z,0
2022-08-03T00:45:00.144Z,0
2022-08-03T00:46:00.140Z,0
2022-08-03T00:46:59.871Z,0
2022-08-03T00:47:59.608Z,0
2022-08-03T00:49:00.316Z,0
2022-08-03T00:50:00.153Z,0
2022-08-03T00:51:01.334Z,0
2022-08-03T00:51:59.333Z,0
2022-08-03T00:52:59.588Z,0
2022-08-03T00:54:00.085Z,0
2022-08-03T00:54:59.818Z,0
2022-08-03T00:56:00.094Z,0
2022-08-03T00:57:06.663Z,0
2022-08-03T00:58:00.061Z,0
2022-08-03T00:59:00.047Z,0
2022-08-03T01:00:00.046Z,0
2022-08-03T01:01:00.338Z,0
2022-08-03T01:01:59.547Z,0
2022-08-03T01:02:59.511Z,0
2022-08-03T01:03:59.514Z,0
2022-08-03T01:05:00.175Z,0
2022-08-03T01:05:59.747Z,0
2022-08-03T01:06:59.739Z,0
2022-08-03T01:07:59.992Z,0
2022-08-03T01:08:59.462Z,0
2022-08-03T01:09:59.971Z,0
2022-08-03T01:10:59.957Z,0
2022-08-03T01:12:08.566Z,0
2022-08-03T01:12:59.944Z,0
2022-08-03T01:14:23.066Z,0
2022-08-03T01:14:59.420Z,0
2022-08-03T01:15:59.932Z,0
2022-08-03T01:16:59.411Z,0
2022-08-03T01:17:59.406Z,0
2022-08-03T01:18:59.556Z,0
2022-08-03T01:19:59.905Z,0
2022-08-03T01:21:00.141Z,0
2022-08-03T01:22:00.898Z,0
2022-08-03T01:22:59.885Z,0
2022-08-03T01:23:59.618Z,0
2022-08-03T01:24:59.881Z,0
2022-08-03T01:26:01.796Z,0
2022-08-03T01:26:59.596Z,0
2022-08-03T01:27:59.584Z,0
2022-08-03T01:28:59.327Z,0
2022-08-03T01:29:59.342Z,0
2022-08-03T01:30:59.560Z,0
2022-08-03T01:33:08.957Z,0
2022-08-03T01:34:22.040Z,0
2022-08-03T01:35:18.979Z,0
2022-08-03T01:36:18.459Z,0
2022-08-03T01:37:18.961Z,0
2022-08-03T01:38:18.448Z,0
2022-08-03T01:39:18.813Z,0
2022-08-03T01:40:18.948Z,0
2022-08-03T01:41:18.441Z,0
2022-08-03T01:42:19.471Z,0
2022-08-03T01:44:30.855Z,0
2022-08-03T01:44:41.536Z,0
2022-08-03T01:45:41.530Z,0
2022-08-03T01:46:47.811Z,0
2022-08-03T01:47:41.511Z,0
2022-08-03T01:48:41.509Z,0
2022-08-03T01:49:41.588Z,0
2022-08-03T01:50:41.996Z,0
2022-08-03T01:52:11.042Z,0
2022-08-03T01:52:41.986Z,0
2022-08-03T01:53:41.721Z,0
2022-08-03T01:54:41.727Z,0
2022-08-03T01:55:41.497Z,0
2022-08-03T01:56:41.954Z,0
2022-08-03T01:58:12.451Z,0
2022-08-03T01:58:41.945Z,0
2022-08-03T01:59:41.677Z,0
2022-08-03T02:00:42.016Z,0
2022-08-03T02:02:41.267Z,0
2022-08-03T02:04:07.097Z,0
2022-08-03T02:04:51.988Z,0
2022-08-03T02:07:01.040Z,0
2022-08-03T02:07:11.793Z,0
2022-08-03T02:08:12.297Z,0
2022-08-03T02:09:12.035Z,0
2022-08-03T02:10:12.023Z,0
2022-08-03T02:11:12.275Z,0
2022-08-03T02:12:12.343Z,0
2022-08-03T02:13:11.776Z,0
2022-08-03T02:14:11.741Z,0
2022-08-03T02:15:12.288Z,0
2022-08-03T02:16:12.235Z,0
2022-08-03T02:17:12.221Z,0
2022-08-03T02:18:12.223Z,0
2022-08-03T02:19:11.965Z,0
2022-08-03T02:20:11.976Z,0
2022-08-03T02:22:04.374Z,0
2022-08-03T02:22:15.367Z,0
2022-08-03T02:23:14.889Z,0
2022-08-03T02:24:15.387Z,0
2022-08-03T02:25:14.874Z,0
2022-08-03T02:26:14.866Z,0
2022-08-03T02:27:15.419Z,0
2022-08-03T02:28:15.499Z,0
2022-08-03T02:29:17.050Z,0
2022-08-03T02:30:15.090Z,0
2022-08-03T02:31:14.831Z,0
2022-08-03T02:32:15.110Z,0
2022-08-03T02:33:15.738Z,0
2022-08-03T02:34:14.801Z,0
2022-08-03T02:35:15.049Z,0
2022-08-03T02:36:15.045Z,0
2022-08-03T02:37:15.285Z,0
2022-08-03T02:38:15.032Z,0
2022-08-03T02:39:15.283Z,0
2022-08-03T02:40:14.760Z,0
2022-08-03T02:41:15.317Z,0
2022-08-03T02:42:17.955Z,0
2022-08-03T02:43:14.989Z,0
2022-08-03T02:44:15.236Z,0
2022-08-03T02:45:18.139Z,0
2022-08-03T02:46:15.214Z,0
2022-08-03T02:47:15.214Z,0
2022-08-03T02:48:14.950Z,0
2022-08-03T02:49:58.279Z,0
2022-08-03T02:50:15.108Z,0
2022-08-03T02:51:15.185Z,0
2022-08-03T02:52:21.647Z,0
2022-08-03T02:53:15.171Z,0
2022-08-03T02:54:14.649Z,0
2022-08-03T02:55:14.899Z,0
2022-08-03T02:56:14.887Z,0
2022-08-03T02:57:14.629Z,0
2022-08-03T02:58:15.126Z,0
2022-08-03T02:59:14.864Z,0
2022-08-03T03:00:19.543Z,0
2022-08-03T03:01:15.270Z,0
2022-08-03T03:02:15.386Z,0
2022-08-03T03:03:17.003Z,0
2022-08-03T03:04:17.407Z,0
2022-08-03T03:06:08.055Z,0
2022-08-03T03:06:21.843Z,0
2022-08-03T03:07:20.300Z,4
2022-08-03T03:08:33.289Z,4
2022-08-03T03:09:20.118Z,4
2022-08-03T03:10:20.116Z,0
2022-08-03T03:11:20.105Z,4
2022-08-03T03:12:20.625Z,4
2022-08-03T03:13:19.843Z,4
2022-08-03T03:14:36.178Z,8
2022-08-03T03:15:20.073Z,8
2022-08-03T03:16:19.555Z,8
2022-08-03T03:17:19.799Z,8
2022-08-03T03:18:25.588Z,12
2022-08-03T03:19:19.276Z,12
2022-08-03T03:20:32.973Z,16
2022-08-03T03:21:22.695Z,20
2022-08-03T03:22:20.649Z,20
2022-08-03T03:23:19.756Z,24
2022-08-03T03:24:20.166Z,28
2022-08-03T03:25:20.673Z,32
2022-08-03T03:26:20.421Z,36
2022-08-03T03:27:25.491Z,44
2022-08-03T03:28:20.646Z,48
2022-08-03T03:29:19.879Z,52
2022-08-03T03:30:20.120Z,60
2022-08-03T03:31:20.623Z,68
2022-08-03T03:32:21.254Z,80
2022-08-03T03:49:59.244Z,332
2022-08-03T03:50:57.097Z,352
2022-08-03T03:51:57.088Z,372
2022-08-03T03:52:57.326Z,392
2022-08-03T03:53:57.063Z,416
2022-08-03T03:55:03.463Z,436
2022-08-03T03:56:09.119Z,460
2022-08-03T03:56:56.772Z,480
2022-08-03T03:57:57.035Z,500
2022-08-03T03:58:56.765Z,520
2022-08-03T03:59:56.764Z,540
2022-08-03T04:00:57.354Z,564
2022-08-03T04:02:05.999Z,592
2022-08-03T04:02:56.722Z,612
2022-08-03T04:03:56.714Z,628
2022-08-03T04:04:56.699Z,652
2022-08-03T04:05:56.692Z,676
2022-08-03T04:06:57.198Z,696
2022-08-03T04:07:56.930Z,720
2022-08-03T04:08:56.924Z,740
2022-08-03T04:09:57.168Z,764
2022-08-03T04:10:56.908Z,784
2022-08-03T04:11:57.162Z,804
2022-08-03T04:12:57.632Z,824
2022-08-03T04:13:57.141Z,844
2022-08-03T04:14:57.127Z,868
2022-08-03T04:15:56.614Z,888
2022-08-03T04:16:56.856Z,908
2022-08-03T04:17:57.110Z,928
2022-08-03T04:18:57.087Z,948
2022-08-03T04:19:57.090Z,968
2022-08-03T04:20:56.831Z,984
2022-08-03T04:21:59.608Z,1004
2022-08-03T04:22:56.804Z,1028
2022-08-03T04:23:56.544Z,1044
2022-08-03T04:24:56.785Z,1060
2022-08-03T04:25:57.044Z,1084
2022-08-03T04:27:00.071Z,1104
2022-08-03T04:28:36.984Z,1128
2022-08-03T04:28:56.755Z,1136
2022-08-03T04:29:56.750Z,1152
2022-08-03T04:30:57.314Z,1168
2022-08-03T04:31:56.730Z,1184
2022-08-03T04:32:57.806Z,1200
2022-08-03T04:33:56.721Z,1216
2022-08-03T04:34:56.969Z,1236
2022-08-03T04:36:09.730Z,1256
2022-08-03T04:36:56.954Z,1268
2022-08-03T04:37:56.431Z,1288
2022-08-03T04:38:56.684Z,1300
2022-08-03T04:40:00.013Z,1320
2022-08-03T04:40:56.927Z,1332
2022-08-03T04:42:14.829Z,1352
2022-08-03T04:42:56.951Z,1364
2022-08-03T04:43:56.646Z,1380
2022-08-03T04:45:02.823Z,1392
2022-08-03T04:45:56.905Z,1404
2022-08-03T04:47:00.033Z,1420
2022-08-03T04:47:56.611Z,1432
2022-08-03T04:48:57.137Z,1448
2022-08-03T04:49:56.854Z,1460
2022-08-03T04:50:56.591Z,1476
2022-08-03T04:51:56.836Z,1488
2022-08-03T04:52:56.574Z,1504
2022-08-03T04:53:57.122Z,1516
2022-08-03T04:54:57.325Z,1528
2022-08-03T04:55:56.296Z,1544
2022-08-03T04:56:56.544Z,1556
2022-08-03T04:57:56.535Z,1572
2022-08-03T04:58:56.274Z,1584
2022-08-03T05:00:04.464Z,1600
2022-08-03T05:00:56.521Z,1608
2022-08-03T05:01:56.979Z,1620
2022-08-03T05:02:56.504Z,1632
2022-08-03T05:03:56.488Z,1640
2022-08-03T05:04:56.486Z,1656
2022-08-03T05:06:13.221Z,1668
2022-08-03T05:07:14.720Z,1684
2022-08-03T05:07:57.850Z,1692
2022-08-03T05:08:58.794Z,1700
2022-08-03T05:10:17.561Z,1716
2022-08-03T05:10:59.250Z,1724
2022-08-03T05:11:56.439Z,1732
2022-08-03T05:12:56.430Z,1744
2022-08-03T05:13:56.418Z,1752
2022-08-03T05:14:56.421Z,1764
2022-08-03T05:15:56.411Z,1776
2022-08-03T05:16:58.260Z,1788
2022-08-03T05:17:55.900Z,1800
2022-08-03T05:18:56.388Z,1808
2022-08-03T05:19:56.160Z,1816
2022-08-03T05:20:56.631Z,1832
2022-08-03T05:21:59.481Z,1840
2022-08-03T05:22:56.366Z,1852
2022-08-03T05:23:56.355Z,1860
2022-08-03T05:24:56.362Z,1868
2022-08-03T05:25:57.098Z,1884
2022-08-03T05:26:56.342Z,1888
2022-08-03T05:27:56.579Z,1900
2022-08-03T05:28:58.335Z,1912
2022-08-03T05:29:56.421Z,1920
2022-08-03T05:30:56.564Z,1928
2022-08-03T05:31:56.042Z,1940
2022-08-03T05:32:56.306Z,1948
2022-08-03T05:33:56.587Z,1960
2022-08-03T05:34:56.282Z,1968
2022-08-03T05:36:09.766Z,1976
2022-08-03T05:36:55.754Z,1984
2022-08-03T05:38:01.877Z,1996
2022-08-03T05:38:59.589Z,2000
2022-08-03T05:39:56.579Z,2012
2022-08-03T05:41:42.030Z,2032
2022-08-03T05:41:55.978Z,2036
2022-08-03T05:42:55.986Z,2044
2022-08-03T05:43:56.483Z,2052
2022-08-03T05:44:56.228Z,2060
2022-08-03T05:46:19.575Z,2072
2022-08-03T05:46:56.229Z,2080
2022-08-03T05:47:56.463Z,2088
2022-08-03T05:48:56.607Z,2096
2022-08-03T05:49:56.448Z,2104
2022-08-03T05:50:56.167Z,2112
2022-08-03T05:52:20.841Z,2124
2022-08-03T05:52:56.666Z,2128
2022-08-03T05:53:56.419Z,2132
2022-08-03T05:55:04.191Z,2144
2022-08-03T05:56:19.196Z,2152
2022-08-03T05:56:55.887Z,2156
2022-08-03T05:57:59.969Z,2164
2022-08-03T05:58:56.148Z,2172
2022-08-03T06:00:05.584Z,2180
2022-08-03T06:00:55.854Z,2184
2022-08-03T06:01:56.378Z,2192
2022-08-03T06:02:56.356Z,2196
2022-08-03T06:03:56.097Z,2204
2022-08-03T06:04:56.341Z,2204
2022-08-03T06:06:07.219Z,2212
2022-08-03T06:06:56.091Z,2216
2022-08-03T06:07:55.821Z,2224
2022-08-03T06:08:56.071Z,2228
2022-08-03T06:10:44.868Z,2236
2022-08-03T06:11:56.301Z,2240
2022-08-03T06:12:58.113Z,2240
2022-08-03T06:13:56.043Z,2240
2022-08-03T06:14:56.289Z,2248
2022-08-03T06:15:56.044Z,2248
2022-08-03T06:16:56.018Z,2260
2022-08-03T06:17:58.792Z,2264
2022-08-03T06:18:56.261Z,2272
2022-08-03T06:19:56.813Z,2280
2022-08-03T06:20:57.478Z,2284
2022-08-03T06:21:57.871Z,2288
2022-08-03T06:23:06.202Z,2300
2022-08-03T06:24:06.244Z,2304
2022-08-03T06:25:10.192Z,2308
2022-08-03T06:25:55.717Z,2312
2022-08-03T06:26:56.224Z,2320
2022-08-03T06:27:56.216Z,2328
2022-08-03T06:29:01.607Z,2336
2022-08-03T06:29:55.950Z,2340
2022-08-03T06:30:56.682Z,2348
2022-08-03T06:31:55.964Z,2352
2022-08-03T06:32:59.117Z,2364
2022-08-03T06:34:41.294Z,2376
2022-08-03T06:35:55.921Z,2388
2022-08-03T06:37:04.361Z,2404
2022-08-03T06:37:55.927Z,2448
2022-08-03T06:38:55.908Z,2972
2022-08-03T06:39:56.053Z,3712
2022-08-03T06:40:57.585Z,2868
2022-08-03T06:41:55.654Z,2916
2022-08-03T06:42:58.411Z,3240
2022-08-03T06:44:12.544Z,4432
2022-08-03T06:44:55.881Z,5372
2022-08-03T06:45:56.130Z,5564
2022-08-03T06:46:55.634Z,10088
2022-08-03T06:47:55.865Z,13504
2022-08-03T06:48:55.686Z,10540
2022-08-03T06:50:29.015Z,18400
2022-08-03T06:50:55.858Z,18624
2022-08-03T06:52:11.862Z,7856
2022-08-03T06:52:55.846Z,15328
2022-08-03T06:53:55.837Z,30080
2022-08-03T06:54:55.582Z,39648
2022-08-03T06:56:01.454Z,41536
2022-08-03T06:56:56.092Z,41792
2022-08-03T06:57:55.576Z,40704
2022-08-03T06:58:55.827Z,39360
2022-08-03T07:00:17.491Z,39616
2022-08-03T07:00:55.821Z,40288
2022-08-03T07:01:56.219Z,42592
2022-08-03T07:03:02.816Z,42944
2022-08-03T07:03:59.737Z,41408
2022-08-03T07:04:55.827Z,40672
2022-08-03T07:05:55.813Z,40192
2022-08-03T07:06:55.815Z,40160
2022-08-03T07:07:56.069Z,40128
2022-08-03T07:09:03.752Z,39872
2022-08-03T07:10:06.731Z,38240
2022-08-03T07:10:56.072Z,38176
2022-08-03T07:11:55.822Z,40416
2022-08-03T07:13:03.684Z,41632
2022-08-03T07:13:55.822Z,40128
2022-08-03T07:15:03.092Z,39456
2022-08-03T07:16:03.301Z,41664
2022-08-03T07:16:56.092Z,44288
2022-08-03T07:17:55.838Z,43456
2022-08-03T07:18:55.584Z,41824
2022-08-03T07:19:55.601Z,41056
2022-08-03T07:20:56.106Z,39744
2022-08-03T07:22:04.614Z,44608
2022-08-03T07:22:55.361Z,46816
2022-08-03T07:23:55.613Z,44960
2022-08-03T07:24:55.618Z,44992
2022-08-03T07:25:56.133Z,45856
2022-08-03T07:26:55.890Z,46016
2022-08-03T07:28:01.054Z,48320
2022-08-03T07:28:55.635Z,49216
2022-08-03T07:29:55.649Z,48736
2022-08-03T07:30:55.902Z,49856
2022-08-03T07:31:56.172Z,49856
2022-08-03T07:32:57.626Z,47840
2022-08-03T07:33:56.191Z,46784
2022-08-03T07:35:02.315Z,48704
2022-08-03T07:35:55.952Z,51264
2022-08-03T07:36:55.951Z,49632
2022-08-03T07:38:01.802Z,48896
2022-08-03T07:38:55.710Z,41056
2022-08-03T07:39:56.371Z,23072
2022-08-03T07:40:55.979Z,8244
2022-08-03T07:41:56.270Z,5652
2022-08-03T07:43:00.403Z,4796
2022-08-03T07:43:55.767Z,4356
2022-08-03T07:44:56.017Z,4044
2022-08-03T07:45:56.034Z,3828
2022-08-03T07:46:58.807Z,3668
2022-08-03T07:48:00.737Z,3540
2022-08-03T07:48:55.880Z,3444
2022-08-03T07:49:56.332Z,3352
2022-08-03T07:50:56.077Z,3296
2022-08-03T07:51:56.338Z,3264
2022-08-03T07:52:56.181Z,3252
2022-08-03T07:53:59.769Z,3240
2022-08-03T07:54:56.111Z,3236
2022-08-03T07:55:56.117Z,3224
2022-08-03T07:56:56.390Z,3220
2022-08-03T07:57:55.885Z,3216
2022-08-03T07:58:56.139Z,3212
2022-08-03T08:00:08.932Z,3208
2022-08-03T08:00:56.443Z,3208
2022-08-03T08:01:56.102Z,3204
2022-08-03T08:02:55.919Z,3200
2022-08-03T08:03:59.688Z,3192
2022-08-03T08:04:56.196Z,3180
2022-08-03T08:05:56.197Z,3172
2022-08-03T08:06:56.209Z,3164
2022-08-03T08:07:58.508Z,3156
2022-08-03T08:08:56.231Z,3148
2022-08-03T08:09:56.493Z,3144
2022-08-03T08:11:05.793Z,3136
2022-08-03T08:11:56.643Z,3136
2022-08-03T08:12:56.650Z,3128
2022-08-03T08:13:56.397Z,3132
2022-08-03T08:14:56.140Z,3132
2022-08-03T08:15:57.551Z,3140
2022-08-03T08:16:56.146Z,3144
2022-08-03T08:17:56.413Z,3144
2022-08-03T08:18:56.676Z,3144
2022-08-03T08:20:01.393Z,3148
2022-08-03T08:20:56.631Z,3152
2022-08-03T08:22:12.526Z,3172
2022-08-03T08:23:01.031Z,3180
2022-08-03T08:24:07.258Z,3196
2022-08-03T08:25:01.157Z,3200
2022-08-03T08:25:56.200Z,3204
2022-08-03T08:26:56.197Z,3208
2022-08-03T08:28:39.631Z,3204
2022-08-03T08:28:56.212Z,3208
2022-08-03T08:30:19.206Z,3204
2022-08-03T08:30:55.982Z,3204
2022-08-03T08:31:56.228Z,3196
2022-08-03T08:32:56.486Z,3188
2022-08-03T08:34:11.837Z,3180
2022-08-03T08:34:56.901Z,3172
2022-08-03T08:35:56.796Z,3164
2022-08-03T08:36:56.242Z,3152
2022-08-03T08:37:59.125Z,3148
2022-08-03T08:38:56.263Z,3140
2022-08-03T08:39:56.520Z,3140
2022-08-03T08:40:56.267Z,3128
2022-08-03T08:42:00.123Z,3120
2022-08-03T08:43:07.596Z,3116
2022-08-03T08:44:02.279Z,3116
2022-08-03T08:44:56.027Z,3112
2022-08-03T08:45:56.552Z,3116
2022-08-03T08:46:56.282Z,3112
2022-08-03T08:48:08.413Z,3104
2022-08-03T08:48:56.390Z,3104
2022-08-03T08:50:32.692Z,3112
2022-08-03T08:50:56.046Z,3112
2022-08-03T08:52:29.661Z,3124
2022-08-03T08:52:56.561Z,3128
2022-08-03T08:53:56.573Z,3132
2022-08-03T08:54:57.388Z,3136
2022-08-03T08:56:06.607Z,3140
2022-08-03T08:56:56.320Z,3148
2022-08-03T08:57:56.582Z,3156
2022-08-03T08:58:56.758Z,3160
2022-08-03T09:00:01.965Z,3164
2022-08-03T09:00:57.215Z,3168
2022-08-03T09:01:56.606Z,3168
2022-08-03T09:02:56.602Z,3160
2022-08-03T09:03:56.367Z,3152
2022-08-03T09:04:56.604Z,3144
2022-08-03T09:06:04.286Z,3132
2022-08-03T09:07:25.309Z,3120
2022-08-03T09:07:56.883Z,3112
2022-08-03T09:08:56.625Z,3104
2022-08-03T09:10:18.761Z,3112
2022-08-03T09:10:56.880Z,3112
2022-08-03T09:12:44.582Z,3108
2022-08-03T09:12:56.898Z,3112
2022-08-03T09:13:56.382Z,3120
2022-08-03T09:15:21.545Z,3148
2022-08-03T09:16:08.237Z,3156
2022-08-03T09:16:56.904Z,3132
2022-08-03T09:17:57.822Z,3140
2022-08-03T09:18:56.145Z,3100
2022-08-03T09:20:10.206Z,3120
2022-08-03T09:20:56.659Z,3140
2022-08-03T09:21:56.669Z,3112
2022-08-03T09:22:56.663Z,3112
2022-08-03T09:24:43.594Z,3180
2022-08-03T09:25:29.757Z,3200
2022-08-03T09:26:02.112Z,3196
2022-08-03T09:27:00.890Z,3184
2022-08-03T09:27:59.155Z,3172
2022-08-03T09:29:18.011Z,3192
2022-08-03T09:29:58.649Z,3216
2022-08-03T09:30:58.924Z,3220
2022-08-03T09:31:59.438Z,3232
2022-08-03T09:32:59.867Z,3248
2022-08-03T09:33:58.681Z,3240
2022-08-03T09:35:03.733Z,3224
2022-08-03T09:36:02.762Z,3204
2022-08-03T09:36:58.684Z,3188
2022-08-03T09:38:20.579Z,3156
2022-08-03T09:38:58.931Z,3156
2022-08-03T09:39:59.748Z,3160
2022-08-03T09:41:05.241Z,3168
2022-08-03T09:41:58.941Z,3156
2022-08-03T09:42:59.198Z,3140
2022-08-03T09:43:58.691Z,3116
2022-08-03T09:44:59.002Z,3092
2022-08-03T09:45:58.699Z,3072
2022-08-03T09:46:59.306Z,3056
2022-08-03T09:47:59.301Z,3044
2022-08-03T09:48:59.157Z,3032
2022-08-03T09:49:58.970Z,3024
2022-08-03T09:52:39.616Z,3032
2022-08-03T09:53:01.943Z,3028
2022-08-03T09:54:16.440Z,3040
2022-08-03T09:55:02.214Z,3048
2022-08-03T09:56:41.951Z,3040
2022-08-03T09:57:09.975Z,3024
2022-08-03T09:58:09.979Z,3004
2022-08-03T09:59:09.716Z,3008
2022-08-03T10:00:15.298Z,3016
2022-08-03T10:01:26.573Z,3068
2022-08-03T10:02:09.484Z,3104
2022-08-03T10:03:09.483Z,3120
2022-08-03T10:04:11.927Z,3120
2022-08-03T10:05:09.493Z,3116
2022-08-03T10:06:10.007Z,3112
2022-08-03T10:07:09.578Z,3124
2022-08-03T10:08:10.025Z,3148
2022-08-03T10:09:10.261Z,3148
2022-08-03T10:10:39.202Z,3100
2022-08-03T10:11:10.019Z,3104
2022-08-03T10:12:10.020Z,2840
2022-08-03T10:13:09.768Z,3092
2022-08-03T10:14:10.025Z,3096
2022-08-03T10:16:25.407Z,3152
2022-08-03T10:16:36.083Z,3136
2022-08-03T10:17:42.445Z,3148
2022-08-03T10:18:38.644Z,3132
2022-08-03T10:19:36.088Z,3128
2022-08-03T10:20:36.097Z,2936
2022-08-03T10:21:36.362Z,3080
2022-08-03T10:22:36.360Z,3140
2022-08-03T10:23:40.439Z,3160
2022-08-03T10:24:36.368Z,3148
2022-08-03T10:25:40.384Z,3160
2022-08-03T10:26:35.862Z,3188
2022-08-03T10:27:35.874Z,3200
2022-08-03T10:28:36.122Z,3192
2022-08-03T10:29:36.121Z,3172
2022-08-03T10:30:36.961Z,3192
2022-08-03T10:31:36.670Z,3272
2022-08-03T10:32:36.393Z,3320
2022-08-03T10:33:59.171Z,3296
2022-08-03T10:34:38.379Z,3300
2022-08-03T10:35:36.144Z,3300
2022-08-03T10:36:37.846Z,3296
2022-08-03T10:37:36.419Z,3304
2022-08-03T10:38:36.417Z,2736
2022-08-03T10:39:36.696Z,3004
2022-08-03T10:41:06.148Z,3496
2022-08-03T10:41:36.440Z,3420
2022-08-03T10:42:36.430Z,3308
2022-08-03T10:43:36.177Z,3336
2022-08-03T10:44:36.181Z,3408
2022-08-03T10:45:36.438Z,3644
2022-08-03T10:46:38.346Z,3736
2022-08-03T10:47:36.099Z,3828
2022-08-03T10:48:36.613Z,3716
2022-08-03T10:49:42.314Z,3500
2022-08-03T10:50:36.865Z,3384
2022-08-03T10:51:36.723Z,3272
2022-08-03T10:52:51.346Z,3176
2022-08-03T10:53:37.283Z,3164
2022-08-03T10:54:37.645Z,3180
2022-08-03T10:55:38.636Z,3208
2022-08-03T10:56:57.684Z,3264
2022-08-03T10:57:40.492Z,3280
2022-08-03T10:58:37.844Z,3276
2022-08-03T10:59:36.650Z,3280
2022-08-03T11:00:36.856Z,3192
2022-08-03T11:02:06.483Z,3176
2022-08-03T11:02:36.660Z,3156
2022-08-03T11:03:36.917Z,3128
2022-08-03T11:04:36.924Z,3100
2022-08-03T11:05:37.984Z,3068
2022-08-03T11:06:44.185Z,3080
2022-08-03T11:07:36.934Z,3124
2022-08-03T11:08:36.936Z,3156
2022-08-03T11:09:36.424Z,3140
2022-08-03T11:10:36.428Z,3140
2022-08-03T11:11:36.946Z,3128
2022-08-03T11:12:37.915Z,3104
2022-08-03T11:13:36.635Z,3076
2022-08-03T11:14:37.141Z,3052
2022-08-03T11:15:36.742Z,3024
2022-08-03T11:16:36.965Z,2980
2022-08-03T11:17:57.842Z,2968
2022-08-03T11:18:36.209Z,2984
2022-08-03T11:19:59.971Z,2708
2022-08-03T11:20:36.217Z,2948
2022-08-03T11:21:37.478Z,3000
2022-08-03T11:22:36.475Z,3016
2022-08-03T11:24:11.723Z,3052
2022-08-03T11:24:36.744Z,3088
2022-08-03T11:26:01.764Z,3200
2022-08-03T11:26:36.489Z,3248
2022-08-03T11:27:37.009Z,3384
2022-08-03T11:28:39.107Z,3468
2022-08-03T11:29:36.856Z,3484
2022-08-03T11:30:36.775Z,3464
2022-08-03T11:32:06.786Z,3228
2022-08-03T11:32:36.538Z,3204
2022-08-03T11:33:36.776Z,3188
2022-08-03T11:34:37.042Z,3268
2022-08-03T11:35:36.794Z,3320
2022-08-03T11:36:40.207Z,3344
2022-08-03T11:37:41.078Z,3324
2022-08-03T11:38:36.542Z,3248
2022-08-03T11:39:36.803Z,3176
2022-08-03T11:40:36.808Z,3136
2022-08-03T11:41:47.619Z,3088
2022-08-03T11:42:37.072Z,3112
2022-08-03T11:43:38.392Z,3120
2022-08-03T11:44:36.568Z,3216
2022-08-03T11:45:37.083Z,3264
2022-08-03T11:46:37.385Z,3308
2022-08-03T11:47:36.834Z,3324
2022-08-03T11:48:37.172Z,3328
2022-08-03T11:49:36.791Z,3332
2022-08-03T11:50:37.110Z,3276
2022-08-03T11:51:36.846Z,3108
2022-08-03T11:52:36.608Z,2988
2022-08-03T11:53:44.329Z,2972
2022-08-03T11:54:37.270Z,2980
2022-08-03T11:55:37.650Z,3032
2022-08-03T11:56:40.557Z,3164
2022-08-03T11:59:27.491Z,3336
2022-08-03T12:00:37.780Z,3248
2022-08-03T12:01:38.524Z,3100
2022-08-03T12:02:38.288Z,2980
2022-08-03T12:03:38.712Z,2928
2022-08-03T12:04:38.305Z,2920
2022-08-03T12:05:39.685Z,2956
2022-08-03T12:06:38.853Z,2996
2022-08-03T12:08:11.861Z,3076
2022-08-03T12:08:38.321Z,3016
2022-08-03T12:09:38.318Z,3028
2022-08-03T12:10:38.317Z,3036
2022-08-03T12:11:38.553Z,2984
2022-08-03T12:12:39.147Z,2968
2022-08-03T12:14:57.497Z,3020
2022-08-03T12:16:08.232Z,3040
2022-08-03T12:17:07.787Z,2996
2022-08-03T12:18:13.389Z,2992
2022-08-03T12:19:08.046Z,2972
2022-08-03T12:20:08.303Z,2940
2022-08-03T12:21:08.081Z,2920
2022-08-03T12:22:07.795Z,2876
2022-08-03T12:23:08.691Z,2832
2022-08-03T12:24:08.322Z,2800
2022-08-03T12:25:08.065Z,2796
2022-08-03T12:26:09.875Z,2836
2022-08-03T12:27:08.077Z,2876
2022-08-03T12:28:44.204Z,2976
2022-08-03T12:29:07.827Z,2980
2022-08-03T12:30:08.084Z,2904
2022-08-03T12:31:07.868Z,2832
2022-08-03T12:32:07.835Z,2808
2022-08-03T12:33:07.845Z,2804
2022-08-03T12:34:08.106Z,2800
2022-08-03T12:35:09.438Z,2824
2022-08-03T12:36:08.197Z,2824
2022-08-03T12:37:28.385Z,2808
2022-08-03T12:38:08.119Z,2792
2022-08-03T12:39:08.390Z,2752
2022-08-03T12:40:25.136Z,2728
2022-08-03T12:41:08.402Z,2740
2022-08-03T12:42:07.879Z,2736
2022-08-03T12:43:07.894Z,2724
2022-08-03T12:44:08.420Z,2716
2022-08-03T12:45:08.404Z,2696
2022-08-03T12:46:07.895Z,2688
2022-08-03T12:47:07.908Z,2684
2022-08-03T12:48:08.182Z,2708
2022-08-03T12:49:08.826Z,2728
2022-08-03T12:50:08.287Z,2744
2022-08-03T12:51:08.182Z,2724
2022-08-03T12:52:13.851Z,2708
2022-08-03T12:53:11.245Z,2704
2022-08-03T12:54:08.460Z,2712
2022-08-03T12:55:08.455Z,2732
2022-08-03T12:56:12.691Z,2720
2022-08-03T12:57:09.222Z,2728
2022-08-03T12:58:09.210Z,2728
2022-08-03T12:59:09.225Z,2732
2022-08-03T13:00:32.210Z,2740
2022-08-03T13:01:18.627Z,2756
2022-08-03T13:02:17.888Z,2748
2022-08-03T13:03:52.799Z,2736
2022-08-03T13:04:09.521Z,2736
2022-08-03T13:05:08.981Z,2744
2022-08-03T13:06:09.236Z,2840
2022-08-03T13:07:20.786Z,2984
2022-08-03T13:08:09.493Z,3016
2022-08-03T13:09:09.261Z,3016
2022-08-03T13:10:14.802Z,3024
2022-08-03T13:11:08.998Z,3148
2022-08-03T13:12:12.818Z,3328
2022-08-03T13:13:09.530Z,3496
2022-08-03T13:14:09.268Z,3608
2022-08-03T13:15:09.631Z,3688
2022-08-03T13:16:09.021Z,3364
2022-08-03T13:17:09.536Z,3144
2022-08-03T13:18:09.027Z,3664
2022-08-03T13:19:17.647Z,4092
2022-08-03T13:20:09.603Z,4132
2022-08-03T13:21:08.846Z,4284
2022-08-03T13:22:11.788Z,4652
2022-08-03T13:23:22.109Z,5092
2022-08-03T13:24:10.797Z,5504
2022-08-03T13:25:09.328Z,5696
2022-08-03T13:26:09.319Z,5748
2022-08-03T13:28:16.800Z,5160
2022-08-03T13:28:28.416Z,5056
2022-08-03T13:29:27.809Z,4396
2022-08-03T13:30:37.570Z,3896
2022-08-03T13:31:30.751Z,3700
2022-08-03T13:32:28.080Z,3560
2022-08-03T13:33:27.835Z,3600
2022-08-03T13:34:30.698Z,3948
2022-08-03T13:35:27.835Z,4316
2022-08-03T13:37:09.718Z,4760
2022-08-03T13:37:29.432Z,4716
2022-08-03T13:38:35.753Z,4456
2022-08-03T13:40:05.562Z,4080
2022-08-03T13:40:43.725Z,3976
2022-08-03T13:41:37.518Z,3848
2022-08-03T13:42:27.412Z,3768
2022-08-03T13:43:28.138Z,3668
2022-08-03T13:44:36.463Z,3440
2022-08-03T13:45:27.891Z,3260
2022-08-03T13:46:27.381Z,3164
2022-08-03T13:47:28.548Z,3136
2022-08-03T13:48:44.649Z,3128
2022-08-03T13:49:27.907Z,3096
2022-08-03T13:50:27.404Z,3068
2022-08-03T13:51:29.794Z,3136
2022-08-03T13:52:28.241Z,3132
2022-08-03T13:53:28.627Z,3164
2022-08-03T13:54:27.936Z,3260
2022-08-03T13:55:27.932Z,3368
2022-08-03T13:56:27.691Z,3316
2022-08-03T13:58:12.596Z,3232
2022-08-03T13:59:28.239Z,3084
2022-08-03T14:00:34.898Z,2916
2022-08-03T14:02:01.123Z,2820
2022-08-03T14:02:28.214Z,2808
2022-08-03T14:03:27.975Z,2808
2022-08-03T14:04:28.806Z,2808
2022-08-03T14:05:28.069Z,2780
2022-08-03T14:06:27.734Z,2796
2022-08-03T14:07:28.204Z,2804